EHDV

D15-fa-1 Sea

D15-fa-1 Sea, The Netherlands
METAR EHDV 251455Z AUTO 23016KT 200V270 9999 NSC 13/08 Q1034 W///H///
Observed Flight Rules
Sep-25 @ 14:55 UTC (35 minutes ago) Visual Flight Rules
Wind Visibility Clouds
230° at 16 knots 10,000+ meters
  • Clear skies
Temperatures Readings
Current 13°C / 55°F
Dewpoint 8°C / 46°F
Humidity 72%
Altimeter 30.53" Hg
Pressure 1034 hPa
Elevation 50
METAR EHDV 251455Z AUTO 23016KT 200V270 9999 NSC 13/08 Q1034 W///H///
Observed Flight Rules
Sep-25 @ 14:55 UTC
(35 minutes ago)
VFR
Wind Visibility
230° at 16 knots 10,000+ meters
Clouds
  • Clear skies
Temperature Dewpoint
13°C / 55°F 8°C / 46°F
Humidity Altimeter Pressure
72% 30.53" Hg 1034 hPa